sensor_id;sensor_type;location;lat;lon;timestamp;pressure;altitude;pressure_sealevel;temperature;humidity
12913;BME280;6524;51.368;11.984;2023-05-20T04:05:14;101034.41;;;9.58;65.94
12913;BME280;6524;51.368;11.984;2023-05-20T04:10:14;101044.22;;;9.89;65.17
12913;BME280;6524;51.368;11.984;2023-05-20T04:15:15;101040.84;;;9.87;65.75
12913;BME280;6524;51.368;11.984;2023-05-20T04:20:16;101035.44;;;10.06;65.15
12913;BME280;6524;51.368;11.984;2023-05-20T04:25:16;101036.44;;;10.03;65.02
12913;BME280;6524;51.368;11.984;2023-05-20T04:30:17;101039.53;;;10.12;64.88
12913;BME280;6524;51.368;11.984;2023-05-20T04:35:17;101046.63;;;9.94;65.67
12913;BME280;6524;51.368;11.984;2023-05-20T04:40:18;101040.59;;;10.25;64.42
12913;BME280;6524;51.368;11.984;2023-05-20T04:45:18;101049.19;;;10.29;64.21
12913;BME280;6524;51.368;11.984;2023-05-20T04:50:19;101040.56;;;10.09;64.33
12913;BME280;6524;51.368;11.984;2023-05-20T04:55:20;101045.66;;;10.12;64.77
12913;BME280;6524;51.368;11.984;2023-05-20T05:00:23;101047.91;;;10.36;63.99
12913;BME280;6524;51.368;11.984;2023-05-20T05:05:24;101058.81;;;10.45;63.83
12913;BME280;6524;51.368;11.984;2023-05-20T05:10:24;101041.03;;;10.49;63.39
12913;BME280;6524;51.368;11.984;2023-05-20T05:15:25;101046.91;;;10.54;62.96
12913;BME280;6524;51.368;11.984;2023-05-20T05:20:25;101054.94;;;10.68;63.31
12913;BME280;6524;51.368;11.984;2023-05-20T05:25:25;101052.28;;;10.68;62.53
12913;BME280;6524;51.368;11.984;2023-05-20T05:30:26;101044.91;;;10.75;62.71
12913;BME280;6524;51.368;11.984;2023-05-20T05:35:26;101038.25;;;10.52;63.00
12913;BME280;6524;51.368;11.984;2023-05-20T05:40:26;101032.91;;;10.20;64.24
12913;BME280;6524;51.368;11.984;2023-05-20T05:45:27;101033.28;;;10.62;63.74
12913;BME280;6524;51.368;11.984;2023-05-20T05:50:27;101036.69;;;10.48;63.28
12913;BME280;6524;51.368;11.984;2023-05-20T05:55:27;101038.94;;;10.87;63.06
12913;BME280;6524;51.368;11.984;2023-05-20T06:00:28;101035.22;;;11.22;61.96
12913;BME280;6524;51.368;11.984;2023-05-20T06:05:30;101039.13;;;11.45;61.17
12913;BME280;6524;51.368;11.984;2023-05-20T06:10:30;101051.88;;;11.38;60.94
12913;BME280;6524;51.368;11.984;2023-05-20T06:15:30;101042.50;;;11.02;61.50
12913;BME280;6524;51.368;11.984;2023-05-20T06:20:31;101035.38;;;11.18;60.95
12913;BME280;6524;51.368;11.984;2023-05-20T06:25:31;101031.25;;;11.29;60.77
12913;BME280;6524;51.368;11.984;2023-05-20T06:30:31;101028.47;;;12.05;59.30
12913;BME280;6524;51.368;11.984;2023-05-20T06:35:33;101022.31;;;12.04;59.37
12913;BME280;6524;51.368;11.984;2023-05-20T06:40:33;101038.41;;;12.01;58.42
12913;BME280;6524;51.368;11.984;2023-05-20T06:45:34;101039.53;;;11.97;59.27
12913;BME280;6524;51.368;11.984;2023-05-20T06:50:35;101028.34;;;12.21;58.39
12913;BME280;6524;51.368;11.984;2023-05-20T06:55:37;101018.88;;;12.60;57.86
12913;BME280;6524;51.368;11.984;2023-05-20T07:00:37;101019.97;;;12.70;56.84
12913;BME280;6524;51.368;11.984;2023-05-20T07:05:38;101015.88;;;12.51;57.11
12913;BME280;6524;51.368;11.984;2023-05-20T07:10:38;101007.75;;;12.82;57.10
12913;BME280;6524;51.368;11.984;2023-05-20T07:15:39;101001.31;;;12.98;55.46
12913;BME280;6524;51.368;11.984;2023-05-20T07:20:39;101001.00;;;12.90;55.80
12913;BME280;6524;51.368;11.984;2023-05-20T07:25:40;100996.16;;;12.55;56.84
12913;BME280;6524;51.368;11.984;2023-05-20T07:30:40;101004.72;;;12.32;57.61
12913;BME280;6524;51.368;11.984;2023-05-20T07:35:41;100997.72;;;12.31;58.44
12913;BME280;6524;51.368;11.984;2023-05-20T07:40:41;100980.31;;;12.27;58.37
12913;BME280;6524;51.368;11.984;2023-05-20T07:45:41;100982.72;;;11.74;59.07
12913;BME280;6524;51.368;11.984;2023-05-20T07:50:43;100988.09;;;12.01;58.72
12913;BME280;6524;51.368;11.984;2023-05-20T07:55:43;100994.72;;;11.66;59.91
12913;BME280;6524;51.368;11.984;2023-05-20T08:00:44;100986.56;;;12.11;58.86
12913;BME280;6524;51.368;11.984;2023-05-20T08:05:44;100989.25;;;11.97;58.86
12913;BME280;6524;51.368;11.984;2023-05-20T08:10:45;100985.91;;;12.08;59.04
12913;BME280;6524;51.368;11.984;2023-05-20T08:15:45;100984.56;;;12.29;58.77
12913;BME280;6524;51.368;11.984;2023-05-20T08:20:47;101001.50;;;12.27;58.24
12913;BME280;6524;51.368;11.984;2023-05-20T08:25:48;100990.97;;;12.54;57.69
12913;BME280;6524;51.368;11.984;2023-05-20T08:30:48;100986.97;;;12.88;57.38
12913;BME280;6524;51.368;11.984;2023-05-20T08:35:48;100972.38;;;13.08;56.81
12913;BME280;6524;51.368;11.984;2023-05-20T08:40:54;100971.06;;;13.28;56.04
12913;BME280;6524;51.368;11.984;2023-05-20T08:45:54;100966.16;;;13.22;55.95
12913;BME280;6524;51.368;11.984;2023-05-20T08:50:56;100969.97;;;13.18;56.77
12913;BME280;6524;51.368;11.984;2023-05-20T08:56:00;100972.81;;;13.15;56.16
12913;BME280;6524;51.368;11.984;2023-05-20T09:01:02;100969.72;;;13.48;55.52
12913;BME280;6524;51.368;11.984;2023-05-20T09:06:04;100969.88;;;13.32;56.25
12913;BME280;6524;51.368;11.984;2023-05-20T09:11:08;100955.81;;;13.70;55.63
12913;BME280;6524;51.368;11.984;2023-05-20T09:16:09;100958.41;;;14.21;54.38
12913;BME280;6524;51.368;11.984;2023-05-20T09:21:10;100932.25;;;14.15;54.10
12913;BME280;6524;51.368;11.984;2023-05-20T09:26:10;100944.97;;;15.76;50.12
12913;BME280;6524;51.368;11.984;2023-05-20T09:31:13;100955.00;;;15.95;48.98
12913;BME280;6524;51.368;11.984;2023-05-20T09:36:14;100938.78;;;16.53;47.67
12913;BME280;6524;51.368;11.984;2023-05-20T09:41:15;100936.38;;;18.06;44.11
12913;BME280;6524;51.368;11.984;2023-05-20T09:46:16;100934.56;;;18.07;44.43
12913;BME280;6524;51.368;11.984;2023-05-20T09:51:16;100942.16;;;18.62;43.69
12913;BME280;6524;51.368;11.984;2023-05-20T09:56:19;100936.78;;;18.62;42.10
12913;BME280;6524;51.368;11.984;2023-05-20T10:01:20;100929.00;;;18.39;42.20
12913;BME280;6524;51.368;11.984;2023-05-20T10:16:58;100901.88;;;17.84;45.89
12913;BME280;6524;51.368;11.984;2023-05-20T10:22:02;100899.91;;;18.56;43.22
12913;BME280;6524;51.368;11.984;2023-05-20T10:27:06;100892.28;;;18.80;43.19
12913;BME280;6524;51.368;11.984;2023-05-20T10:32:07;100892.31;;;18.70;42.45
12913;BME280;6524;51.368;11.984;2023-05-20T10:37:08;100891.16;;;18.92;42.44
12913;BME280;6524;51.368;11.984;2023-05-20T10:42:09;100890.13;;;18.45;43.04
12913;BME280;6524;51.368;11.984;2023-05-20T10:47:13;100891.84;;;18.46;43.42
12913;BME280;6524;51.368;11.984;2023-05-20T10:52:16;100888.00;;;18.19;43.58
12913;BME280;6524;51.368;11.984;2023-05-20T10:57:17;100878.75;;;18.23;43.86
12913;BME280;6524;51.368;11.984;2023-05-20T11:02:18;100853.84;;;17.73;45.13
12913;BME280;6524;51.368;11.984;2023-05-20T11:07:29;100854.34;;;17.57;45.93
12913;BME280;6524;51.368;11.984;2023-05-20T11:12:31;100845.09;;;17.51;46.00
12913;BME280;6524;51.368;11.984;2023-05-20T11:17:31;100834.72;;;19.13;42.92
12913;BME280;6524;51.368;11.984;2023-05-20T11:22:32;100835.59;;;19.51;41.96
12913;BME280;6524;51.368;11.984;2023-05-20T11:27:32;100840.91;;;19.33;41.46
12913;BME280;6524;51.368;11.984;2023-05-20T11:32:33;100818.09;;;19.19;41.84
12913;BME280;6524;51.368;11.984;2023-05-20T11:37:35;100821.47;;;18.26;43.72
12913;BME280;6524;51.368;11.984;2023-05-20T11:42:35;100815.94;;;18.76;43.26
12913;BME280;6524;51.368;11.984;2023-05-20T11:47:35;100798.13;;;19.14;42.84
12913;BME280;6524;51.368;11.984;2023-05-20T11:52:36;100793.75;;;18.56;44.10
12913;BME280;6524;51.368;11.984;2023-05-20T11:57:37;100803.94;;;19.64;42.77
12913;BME280;6524;51.368;11.984;2023-05-20T12:02:37;100781.63;;;19.91;41.79
12913;BME280;6524;51.368;11.984;2023-05-20T12:07:38;100796.75;;;19.93;41.53
12913;BME280;6524;51.368;11.984;2023-05-20T12:12:38;100795.78;;;20.37;41.29
12913;BME280;6524;51.368;11.984;2023-05-20T12:17:51;100787.03;;;20.79;40.02
12913;BME280;6524;51.368;11.984;2023-05-20T12:22:51;100776.53;;;21.20;38.95
12913;BME280;6524;51.368;11.984;2023-05-20T12:27:52;100767.47;;;21.56;38.39
12913;BME280;6524;51.368;11.984;2023-05-20T12:32:52;100775.41;;;21.73;37.86
12913;BME280;6524;51.368;11.984;2023-05-20T12:37:53;100778.81;;;22.49;37.43
12913;BME280;6524;51.368;11.984;2023-05-20T12:42:53;100761.66;;;22.58;37.00
12913;BME280;6524;51.368;11.984;2023-05-20T12:47:55;100765.16;;;22.75;36.75
12913;BME280;6524;51.368;11.984;2023-05-20T12:52:55;100756.75;;;22.70;37.06
12913;BME280;6524;51.368;11.984;2023-05-20T12:57:55;100748.50;;;22.80;36.52
12913;BME280;6524;51.368;11.984;2023-05-20T13:02:56;100752.91;;;21.91;37.28
12913;BME280;6524;51.368;11.984;2023-05-20T13:07:56;100743.75;;;21.51;37.77
12913;BME280;6524;51.368;11.984;2023-05-20T13:12:57;100736.78;;;21.99;37.64
12913;BME280;6524;51.368;11.984;2023-05-20T13:17:57;100732.44;;;22.06;37.34
12913;BME280;6524;51.368;11.984;2023-05-20T13:23:00;100728.03;;;22.13;37.83
12913;BME280;6524;51.368;11.984;2023-05-20T13:28:00;100703.81;;;22.05;38.44
12913;BME280;6524;51.368;11.984;2023-05-20T13:33:01;100710.59;;;22.26;37.12
12913;BME280;6524;51.368;11.984;2023-05-20T13:38:05;100707.84;;;22.50;37.56
12913;BME280;6524;51.368;11.984;2023-05-20T13:43:08;100713.75;;;22.05;37.04
12913;BME280;6524;51.368;11.984;2023-05-20T13:48:08;100695.41;;;21.67;39.22
12913;BME280;6524;51.368;11.984;2023-05-20T13:53:09;100698.44;;;21.64;38.96
12913;BME280;6524;51.368;11.984;2023-05-20T13:58:12;100683.28;;;21.47;39.76
12913;BME280;6524;51.368;11.984;2023-05-20T14:03:13;100680.06;;;21.35;39.75
12913;BME280;6524;51.368;11.984;2023-05-20T14:08:14;100681.84;;;21.10;40.21
12913;BME280;6524;51.368;11.984;2023-05-20T14:13:14;100666.09;;;21.23;39.83
12913;BME280;6524;51.368;11.984;2023-05-20T14:18:15;100666.31;;;20.88;40.47
12913;BME280;6524;51.368;11.984;2023-05-20T14:23:16;100650.19;;;20.88;41.18
12913;BME280;6524;51.368;11.984;2023-05-20T14:28:16;100650.13;;;20.71;41.36
12913;BME280;6524;51.368;11.984;2023-05-20T14:33:17;100626.97;;;20.70;41.46
12913;BME280;6524;51.368;11.984;2023-05-20T14:38:17;100627.75;;;20.97;41.28
12913;BME280;6524;51.368;11.984;2023-05-20T14:43:19;100627.41;;;21.00;40.71
12913;BME280;6524;51.368;11.984;2023-05-20T14:48:20;100630.81;;;21.02;41.04
12913;BME280;6524;51.368;11.984;2023-05-20T14:53:21;100626.63;;;20.65;41.33
12913;BME280;6524;51.368;11.984;2023-05-20T14:58:21;100620.34;;;20.22;42.69
12913;BME280;6524;51.368;11.984;2023-05-20T15:03:21;100618.13;;;20.44;42.26
12913;BME280;6524;51.368;11.984;2023-05-20T15:08:26;100622.91;;;20.32;43.17
12913;BME280;6524;51.368;11.984;2023-05-20T15:13:27;100618.38;;;20.32;42.08
12913;BME280;6524;51.368;11.984;2023-05-20T15:18:27;100607.41;;;19.91;42.62
12913;BME280;6524;51.368;11.984;2023-05-20T15:23:28;100605.44;;;20.28;42.93
12913;BME280;6524;51.368;11.984;2023-05-20T15:28:28;100595.50;;;20.20;42.82
12913;BME280;6524;51.368;11.984;2023-05-20T15:33:28;100588.72;;;20.34;42.93
12913;BME280;6524;51.368;11.984;2023-05-20T15:38:29;100574.91;;;19.95;43.64
12913;BME280;6524;51.368;11.984;2023-05-20T15:43:29;100575.06;;;20.19;42.74
12913;BME280;6524;51.368;11.984;2023-05-20T15:48:29;100576.56;;;19.69;43.28
12913;BME280;6524;51.368;11.984;2023-05-20T15:53:31;100572.66;;;19.64;43.91
12913;BME280;6524;51.368;11.984;2023-05-20T15:58:31;100570.31;;;20.05;43.76
12913;BME280;6524;51.368;11.984;2023-05-20T16:03:32;100569.00;;;19.65;43.40
12913;BME280;6524;51.368;11.984;2023-05-20T16:08:32;100563.25;;;19.60;43.85
12913;BME280;6524;51.368;11.984;2023-05-20T16:13:35;100571.25;;;19.52;44.52
12913;BME280;6524;51.368;11.984;2023-05-20T16:18:35;100563.75;;;19.37;44.04
12913;BME280;6524;51.368;11.984;2023-05-20T16:23:36;100557.53;;;19.55;44.20
12913;BME280;6524;51.368;11.984;2023-05-20T16:28:36;100537.38;;;19.68;43.57
12913;BME280;6524;51.368;11.984;2023-05-20T16:33:37;100538.28;;;19.33;44.41
12913;BME280;6524;51.368;11.984;2023-05-20T16:38:37;100525.16;;;18.94;45.01
12913;BME280;6524;51.368;11.984;2023-05-20T16:43:38;100545.84;;;19.20;45.31
12913;BME280;6524;51.368;11.984;2023-05-20T16:48:38;100531.28;;;18.87;46.10
12913;BME280;6524;51.368;11.984;2023-05-20T16:53:42;100530.13;;;18.71;46.22
12913;BME280;6524;51.368;11.984;2023-05-20T16:58:42;100532.16;;;18.60;46.55
12913;BME280;6524;51.368;11.984;2023-05-20T17:03:42;100545.16;;;18.55;46.77
12913;BME280;6524;51.368;11.984;2023-05-20T17:08:43;100540.47;;;18.57;46.57
12913;BME280;6524;51.368;11.984;2023-05-20T17:13:43;100533.25;;;18.39;47.69
12913;BME280;6524;51.368;11.984;2023-05-20T17:18:44;100541.31;;;18.29;47.47
12913;BME280;6524;51.368;11.984;2023-05-20T17:23:45;100531.25;;;18.14;47.28
12913;BME280;6524;51.368;11.984;2023-05-20T17:28:45;100538.56;;;18.12;47.54
12913;BME280;6524;51.368;11.984;2023-05-20T17:33:46;100543.50;;;18.06;47.29
12913;BME280;6524;51.368;11.984;2023-05-20T17:38:46;100550.97;;;18.03;48.36
12913;BME280;6524;51.368;11.984;2023-05-20T17:43:47;100544.28;;;17.89;48.68
12913;BME280;6524;51.368;11.984;2023-05-20T17:48:47;100555.09;;;17.78;48.60
12913;BME280;6524;51.368;11.984;2023-05-20T17:53:48;100557.22;;;17.84;48.72
12913;BME280;6524;51.368;11.984;2023-05-20T17:58:48;100558.06;;;17.84;49.18
12913;BME280;6524;51.368;11.984;2023-05-20T18:03:49;100561.72;;;17.74;49.22
12913;BME280;6524;51.368;11.984;2023-05-20T18:08:49;100554.72;;;17.34;50.23
12913;BME280;6524;51.368;11.984;2023-05-20T18:13:49;100561.13;;;17.02;51.19
12913;BME280;6524;51.368;11.984;2023-05-20T18:18:50;100561.47;;;17.19;50.55
12913;BME280;6524;51.368;11.984;2023-05-20T18:23:51;100567.66;;;17.48;50.31
12913;BME280;6524;51.368;11.984;2023-05-20T18:28:51;100566.78;;;17.19;50.80
12913;BME280;6524;51.368;11.984;2023-05-20T18:33:51;100575.25;;;17.24;49.88
12913;BME280;6524;51.368;11.984;2023-05-20T18:38:52;100571.84;;;17.31;50.21
12913;BME280;6524;51.368;11.984;2023-05-20T18:43:52;100567.31;;;16.93;51.29
12913;BME280;6524;51.368;11.984;2023-05-20T18:48:52;100565.34;;;16.85;51.34
12913;BME280;6524;51.368;11.984;2023-05-20T18:53:53;100575.75;;;16.48;52.49
12913;BME280;6524;51.368;11.984;2023-05-20T18:58:53;100579.47;;;16.36;52.89
12913;BME280;6524;51.368;11.984;2023-05-20T19:03:55;100583.09;;;16.35;53.00
12913;BME280;6524;51.368;11.984;2023-05-20T19:08:55;100578.03;;;16.32;52.91
12913;BME280;6524;51.368;11.984;2023-05-20T19:13:56;100594.03;;;16.32;53.07
12913;BME280;6524;51.368;11.984;2023-05-20T19:18:59;100600.19;;;16.22;52.85
12913;BME280;6524;51.368;11.984;2023-05-20T19:24:00;100607.09;;;16.04;53.84
12913;BME280;6524;51.368;11.984;2023-05-20T19:29:00;100611.63;;;16.13;53.17
12913;BME280;6524;51.368;11.984;2023-05-20T19:34:01;100609.53;;;15.96;53.80
12913;BME280;6524;51.368;11.984;2023-05-20T19:39:01;100606.31;;;15.92;53.53
12913;BME280;6524;51.368;11.984;2023-05-20T19:44:01;100605.34;;;15.72;54.29
12913;BME280;6524;51.368;11.984;2023-05-20T19:49:02;100609.00;;;15.60;54.86
12913;BME280;6524;51.368;11.984;2023-05-20T19:54:02;100616.03;;;15.50;55.23
12913;BME280;6524;51.368;11.984;2023-05-20T19:59:03;100607.63;;;15.33;55.42
12913;BME280;6524;51.368;11.984;2023-05-20T20:04:03;100611.25;;;15.00;56.50
12913;BME280;6524;51.368;11.984;2023-05-20T20:09:04;100607.50;;;14.92;56.17
12913;BME280;6524;51.368;11.984;2023-05-20T20:14:04;100593.16;;;14.94;56.69
12913;BME280;6524;51.368;11.984;2023-05-20T20:19:04;100592.41;;;14.70;57.15
12913;BME280;6524;51.368;11.984;2023-05-20T20:24:05;100587.25;;;14.57;57.75
12913;BME280;6524;51.368;11.984;2023-05-20T20:29:06;100587.72;;;14.51;57.48
12913;BME280;6524;51.368;11.984;2023-05-20T20:34:06;100594.22;;;14.13;59.54
12913;BME280;6524;51.368;11.984;2023-05-20T20:39:07;100597.38;;;14.63;57.53
12913;BME280;6524;51.368;11.984;2023-05-20T20:44:07;100587.59;;;14.63;57.88
12913;BME280;6524;51.368;11.984;2023-05-20T20:49:09;100586.50;;;14.44;58.41
12913;BME280;6524;51.368;11.984;2023-05-20T20:54:10;100592.28;;;14.37;59.03
12913;BME280;6524;51.368;11.984;2023-05-20T20:59:10;100588.94;;;14.35;58.93
12913;BME280;6524;51.368;11.984;2023-05-20T21:04:12;100580.41;;;13.97;60.63
12913;BME280;6524;51.368;11.984;2023-05-20T21:09:13;100581.16;;;14.10;60.28
12913;BME280;6524;51.368;11.984;2023-05-20T21:14:13;100589.47;;;13.94;60.83
12913;BME280;6524;51.368;11.984;2023-05-20T21:19:14;100577.94;;;13.71;61.78
12913;BME280;6524;51.368;11.984;2023-05-20T21:24:14;100564.56;;;13.84;61.54
12913;BME280;6524;51.368;11.984;2023-05-20T21:29:15;100566.41;;;13.94;61.11
12913;BME280;6524;51.368;11.984;2023-05-20T21:34:15;100570.38;;;13.89;61.51
12913;BME280;6524;51.368;11.984;2023-05-20T21:39:15;100566.66;;;13.45;63.20
12913;BME280;6524;51.368;11.984;2023-05-20T21:44:16;100548.66;;;13.37;63.47
12913;BME280;6524;51.368;11.984;2023-05-20T21:49:16;100561.63;;;13.29;63.80
12913;BME280;6524;51.368;11.984;2023-05-20T21:54:16;100561.84;;;13.26;64.03
12913;BME280;6524;51.368;11.984;2023-05-20T21:59:17;100558.22;;;13.27;64.27
12913;BME280;6524;51.368;11.984;2023-05-20T22:04:17;100548.66;;;13.37;64.11
12913;BME280;6524;51.368;11.984;2023-05-20T22:09:18;100551.91;;;13.17;64.38
12913;BME280;6524;51.368;11.984;2023-05-20T22:14:18;100549.25;;;13.76;62.47
12913;BME280;6524;51.368;11.984;2023-05-20T22:19:19;100543.22;;;13.85;62.36
12913;BME280;6524;51.368;11.984;2023-05-20T22:24:20;100548.16;;;13.79;62.81
12913;BME280;6524;51.368;11.984;2023-05-20T22:29:21;100551.63;;;13.68;63.29
12913;BME280;6524;51.368;11.984;2023-05-20T22:34:21;100556.41;;;13.52;63.72
12913;BME280;6524;51.368;11.984;2023-05-20T22:39:21;100546.72;;;13.39;64.26
12913;BME280;6524;51.368;11.984;2023-05-20T22:44:22;100530.34;;;13.45;64.30
12913;BME280;6524;51.368;11.984;2023-05-20T22:49:22;100539.28;;;13.44;63.99
12913;BME280;6524;51.368;11.984;2023-05-20T22:54:22;100537.34;;;13.46;64.11
12913;BME280;6524;51.368;11.984;2023-05-20T22:59:24;100529.88;;;13.40;64.60
12913;BME280;6524;51.368;11.984;2023-05-20T23:04:25;100534.44;;;13.49;64.42
12913;BME280;6524;51.368;11.984;2023-05-20T23:09:25;100528.50;;;13.11;64.82
12913;BME280;6524;51.368;11.984;2023-05-20T23:14:26;100524.84;;;13.00;65.78
12913;BME280;6524;51.368;11.984;2023-05-20T23:19:26;100522.22;;;13.12;65.46
12913;BME280;6524;51.368;11.984;2023-05-20T23:24:27;100515.00;;;13.14;65.67
12913;BME280;6524;51.368;11.984;2023-05-20T23:29:27;100518.31;;;12.93;66.10
12913;BME280;6524;51.368;11.984;2023-05-20T23:34:27;100507.94;;;12.90;66.70
12913;BME280;6524;51.368;11.984;2023-05-20T23:39:29;100509.16;;;12.97;65.95
